Deddington, United Kingdom
Current Conditions -  °F | °C
As of 7:20 PM on Thursday 23 Oct 2014 (Local Time) from EGTK Reporting Station
Moderate Rain Moderate Rain  
Wind Chill: 59°   Ceiling: 2000
Heat Index: 59°   Visibility: 6mi
Dew Point: 57°   Wind: 8mph
Humidity: 94%   Direction: 210°SSW
Pressure: 30"   Gusts: NA
Location:  51.98°N, 1.32°W
Report Text: EGTK 231820Z 21007KT 180V240 9999 RA BKN020 BKN023 OVC042 15/14 Q1016
Loading
Personal Weather Stations






























Interactive Weather Map New forecast layout! Learn more

10-Day Weather Forecast

Advertisements
Track Severe Weather on mobile